createdAt,value
2019-02-16T00:00:39.450Z,404
2019-02-16T00:01:46.408Z,403
2019-02-16T00:02:53.598Z,403
2019-02-16T00:04:00.248Z,403
2019-02-16T00:05:07.172Z,403
2019-02-16T00:06:14.371Z,404
2019-02-16T00:07:21.561Z,404
2019-02-16T00:08:28.486Z,404
2019-02-16T00:09:35.402Z,404
2019-02-16T00:10:42.593Z,404
2019-02-16T00:11:49.782Z,394
2019-02-16T00:12:56.976Z,398
2019-02-16T00:14:04.171Z,399
2019-02-16T00:15:11.363Z,400
2019-02-16T00:16:18.557Z,400
2019-02-16T00:17:25.749Z,400
2019-02-16T00:18:32.945Z,400
2019-02-16T00:19:39.871Z,400
2019-02-16T00:20:47.066Z,401
2019-02-16T00:21:54.255Z,401
2019-02-16T00:23:01.444Z,401
2019-02-16T00:24:08.641Z,403
2019-02-16T00:25:15.552Z,403
2019-02-16T00:26:22.743Z,403
2019-02-16T00:27:29.658Z,403
2019-02-16T00:28:36.304Z,403
2019-02-16T00:29:43.494Z,404
2019-02-16T00:30:50.687Z,405
2019-02-16T00:31:57.612Z,405
2019-02-16T00:33:04.533Z,404
2019-02-16T00:34:11.460Z,404
2019-02-16T00:35:18.379Z,405
2019-02-16T00:36:25.300Z,405
2019-02-16T00:37:32.254Z,406
2019-02-16T00:38:39.448Z,404
2019-02-16T00:39:46.371Z,404
2019-02-16T00:40:53.563Z,403
2019-02-16T00:42:00.759Z,404
2019-02-16T00:43:07.950Z,404
2019-02-16T00:44:15.142Z,404
2019-02-16T00:45:21.840Z,403
2019-02-16T00:46:29.030Z,404
2019-02-16T00:47:36.262Z,404
2019-02-16T00:48:43.457Z,405
2019-02-16T00:49:50.648Z,405
2019-02-16T00:50:57.835Z,405
2019-02-16T00:52:05.029Z,406
2019-02-16T00:53:12.217Z,405
2019-02-16T00:54:19.146Z,405
2019-02-16T00:55:26.335Z,406
2019-02-16T00:56:33.258Z,405
2019-02-16T00:57:40.447Z,406
2019-02-16T00:58:47.367Z,406
2019-02-16T00:59:54.541Z,405
2019-02-16T01:01:01.733Z,406
2019-02-16T01:02:08.926Z,406
2019-02-16T01:03:16.117Z,407
2019-02-16T01:04:23.311Z,407
2019-02-16T01:05:30.504Z,407
2019-02-16T01:06:37.697Z,406
2019-02-16T01:07:44.930Z,406
2019-02-16T01:08:52.120Z,407
2019-02-16T01:09:59.309Z,407
2019-02-16T01:11:06.225Z,407
2019-02-16T01:12:13.436Z,406
2019-02-16T01:13:20.635Z,406
2019-02-16T01:14:27.830Z,406
2019-02-16T01:15:35.020Z,405
2019-02-16T01:16:42.211Z,405
2019-02-16T01:17:49.401Z,406
2019-02-16T01:18:56.597Z,406
2019-02-16T01:20:03.792Z,404
2019-02-16T01:21:10.987Z,405
2019-02-16T01:22:18.176Z,405
2019-02-16T01:23:25.370Z,406
2019-02-16T01:24:32.557Z,406
2019-02-16T01:25:39.744Z,407
2019-02-16T01:26:46.943Z,407
2019-02-16T01:27:54.138Z,406
2019-02-16T01:29:01.386Z,406
2019-02-16T01:30:08.310Z,407
2019-02-16T01:31:15.510Z,408
2019-02-16T01:32:22.705Z,407
2019-02-16T01:33:29.935Z,408
2019-02-16T01:34:37.127Z,408
2019-02-16T01:35:44.048Z,408
2019-02-16T01:36:51.244Z,408
2019-02-16T01:37:58.438Z,407
2019-02-16T01:39:05.636Z,406
2019-02-16T01:40:12.829Z,405
2019-02-16T01:41:20.019Z,407
2019-02-16T01:42:27.213Z,407
2019-02-16T01:43:34.141Z,407
2019-02-16T01:44:41.331Z,407
2019-02-16T01:45:48.538Z,407
2019-02-16T01:46:55.732Z,407
2019-02-16T01:48:02.925Z,407
2019-02-16T01:49:09.856Z,407
2019-02-16T01:50:17.047Z,406
2019-02-16T01:51:32.858Z,407
2019-02-16T01:52:40.049Z,406
2019-02-16T01:53:47.238Z,407
2019-02-16T01:54:53.881Z,407
2019-02-16T01:56:00.816Z,407
2019-02-16T01:57:08.004Z,407
2019-02-16T01:58:15.201Z,407
2019-02-16T01:59:22.127Z,408
2019-02-16T02:00:29.320Z,408
2019-02-16T02:01:36.512Z,407
2019-02-16T02:02:43.435Z,407
2019-02-16T02:03:50.625Z,407
2019-02-16T02:04:57.814Z,407
2019-02-16T02:06:05.006Z,407
2019-02-16T02:07:12.198Z,407
2019-02-16T02:08:19.390Z,407
2019-02-16T02:09:26.307Z,408
2019-02-16T02:10:33.495Z,407
2019-02-16T02:11:40.687Z,407
2019-02-16T02:12:47.617Z,406
2019-02-16T02:13:54.529Z,408
2019-02-16T02:15:01.462Z,408
2019-02-16T02:16:08.375Z,408
2019-02-16T02:17:15.572Z,407
2019-02-16T02:18:22.498Z,407
2019-02-16T02:19:29.687Z,407
2019-02-16T02:20:36.879Z,406
2019-02-16T02:21:44.072Z,406
2019-02-16T02:22:51.268Z,406
2019-02-16T02:23:58.462Z,407
2019-02-16T02:25:05.380Z,408
2019-02-16T02:26:12.570Z,408
2019-02-16T02:27:19.496Z,408
2019-02-16T02:28:26.695Z,408
2019-02-16T02:29:33.614Z,407
2019-02-16T02:30:40.805Z,408
2019-02-16T02:31:48.239Z,408
2019-02-16T02:32:55.428Z,408
2019-02-16T02:34:02.617Z,409
2019-02-16T02:35:09.814Z,408
2019-02-16T02:36:16.722Z,409
2019-02-16T02:37:23.920Z,409
2019-02-16T02:38:30.838Z,409
2019-02-16T02:39:38.033Z,409
2019-02-16T02:40:45.222Z,409
2019-02-16T02:41:52.415Z,410
2019-02-16T02:42:59.336Z,410
2019-02-16T02:44:06.279Z,411
2019-02-16T02:45:13.465Z,410
2019-02-16T02:46:20.379Z,410
2019-02-16T02:47:27.352Z,409
2019-02-16T02:48:34.541Z,410
2019-02-16T02:49:41.511Z,409
2019-02-16T02:50:48.692Z,409
2019-02-16T02:51:55.879Z,411
2019-02-16T02:53:03.067Z,410
2019-02-16T02:54:09.987Z,410
2019-02-16T02:55:17.179Z,410
2019-02-16T02:56:24.385Z,410
2019-02-16T02:57:31.568Z,410
2019-02-16T02:58:38.761Z,410
2019-02-16T02:59:45.678Z,410
2019-02-16T03:00:52.867Z,410
2019-02-16T03:02:00.086Z,409
2019-02-16T03:03:07.323Z,409
2019-02-16T03:04:14.515Z,410
2019-02-16T03:05:21.722Z,410
2019-02-16T03:06:28.910Z,410
2019-02-16T03:07:36.106Z,410
2019-02-16T03:08:43.032Z,410
2019-02-16T03:09:49.956Z,410
2019-02-16T03:10:56.874Z,410
2019-02-16T03:12:04.074Z,410
2019-02-16T03:13:11.257Z,410
2019-02-16T03:14:18.181Z,410
2019-02-16T03:15:25.367Z,410
2019-02-16T03:16:32.562Z,411
2019-02-16T03:17:39.761Z,410
2019-02-16T03:18:46.677Z,411
2019-02-16T03:19:53.912Z,411
2019-02-16T03:21:01.106Z,411
2019-02-16T03:22:08.300Z,411
2019-02-16T03:23:15.491Z,411
2019-02-16T03:24:22.681Z,411
2019-02-16T03:25:29.600Z,411
2019-02-16T03:26:36.795Z,412
2019-02-16T03:27:44.046Z,412
2019-02-16T03:28:51.241Z,412
2019-02-16T03:29:58.441Z,411
2019-02-16T03:31:05.358Z,411
2019-02-16T03:32:12.555Z,411
2019-02-16T03:33:19.788Z,411
2019-02-16T03:34:27.015Z,411
2019-02-16T03:35:34.205Z,411
2019-02-16T03:36:41.400Z,410
2019-02-16T03:37:48.702Z,410
2019-02-16T03:38:55.912Z,410
2019-02-16T03:40:03.104Z,410
2019-02-16T03:41:10.296Z,411
2019-02-16T03:42:17.484Z,411
2019-02-16T03:43:24.681Z,411
2019-02-16T03:44:31.871Z,411
2019-02-16T03:45:39.068Z,410
2019-02-16T03:46:46.254Z,410
2019-02-16T03:47:53.442Z,409
2019-02-16T03:49:00.368Z,409
2019-02-16T03:50:07.563Z,410
2019-02-16T03:51:14.486Z,410
2019-02-16T03:52:21.681Z,410
2019-02-16T03:53:28.600Z,411
2019-02-16T03:54:35.791Z,412
2019-02-16T03:55:42.978Z,412
2019-02-16T03:56:49.900Z,411
2019-02-16T03:57:57.098Z,411
2019-02-16T03:59:04.294Z,411
2019-02-16T04:00:11.479Z,411
2019-02-16T04:01:18.668Z,410
2019-02-16T04:02:25.863Z,411
2019-02-16T04:03:32.775Z,411
2019-02-16T04:04:39.974Z,411
2019-02-16T04:05:47.165Z,411
2019-02-16T04:06:54.356Z,412
2019-02-16T04:08:01.278Z,412
2019-02-16T04:09:08.464Z,413
2019-02-16T04:10:15.655Z,412
2019-02-16T04:11:22.846Z,412
2019-02-16T04:12:29.760Z,413
2019-02-16T04:13:36.952Z,412
2019-02-16T04:14:44.144Z,412
2019-02-16T04:15:51.331Z,411
2019-02-16T04:16:58.248Z,411
2019-02-16T04:18:05.437Z,410
2019-02-16T04:19:12.352Z,411
2019-02-16T04:20:19.546Z,412
2019-02-16T04:21:26.464Z,412
2019-02-16T04:22:33.662Z,413
2019-02-16T04:23:40.845Z,413
2019-02-16T04:24:48.076Z,413
2019-02-16T04:25:54.985Z,412
2019-02-16T04:27:02.176Z,412
2019-02-16T04:28:09.370Z,412
2019-02-16T04:29:16.563Z,411
2019-02-16T04:30:23.750Z,411
2019-02-16T04:31:30.943Z,413
2019-02-16T04:32:38.138Z,413
2019-02-16T04:33:45.327Z,414
2019-02-16T04:34:52.537Z,413
2019-02-16T04:35:59.721Z,414
2019-02-16T04:37:06.638Z,414
2019-02-16T04:38:13.823Z,414
2019-02-16T04:39:20.742Z,414
2019-02-16T04:40:27.671Z,414
2019-02-16T04:41:34.868Z,414
2019-02-16T04:42:41.810Z,414
2019-02-16T04:43:49.101Z,413
2019-02-16T04:44:56.293Z,413
2019-02-16T04:46:03.492Z,414
2019-02-16T04:47:10.405Z,414
2019-02-16T04:48:17.320Z,414
2019-02-16T04:49:24.504Z,414
2019-02-16T04:50:31.697Z,415
2019-02-16T04:51:38.617Z,415
2019-02-16T04:52:45.532Z,414
2019-02-16T04:53:52.452Z,415
2019-02-16T04:54:59.645Z,413
2019-02-16T04:56:06.937Z,413
2019-02-16T04:57:14.134Z,413
2019-02-16T04:58:21.326Z,412
2019-02-16T04:59:28.519Z,412
2019-02-16T05:00:35.431Z,413
2019-02-16T05:01:42.619Z,412
2019-02-16T05:02:49.812Z,412
2019-02-16T05:03:57.002Z,412
2019-02-16T05:05:04.192Z,413
2019-02-16T05:06:11.431Z,412
2019-02-16T05:07:18.356Z,412
2019-02-16T05:08:25.539Z,413
2019-02-16T05:09:32.458Z,413
2019-02-16T05:10:39.647Z,413
2019-02-16T05:11:46.568Z,412
2019-02-16T05:12:53.218Z,412
2019-02-16T05:14:00.408Z,413
2019-02-16T05:15:07.678Z,414
2019-02-16T05:16:14.864Z,413
2019-02-16T05:17:22.661Z,413
2019-02-16T05:18:29.574Z,413
2019-02-16T05:19:36.762Z,412
2019-02-16T05:20:43.684Z,412
2019-02-16T05:21:50.597Z,412
2019-02-16T05:22:57.785Z,413
2019-02-16T05:24:04.988Z,414
2019-02-16T05:25:12.185Z,414
2019-02-16T05:26:19.379Z,413
2019-02-16T05:27:26.572Z,413
2019-02-16T05:28:33.763Z,414
2019-02-16T05:29:40.992Z,415
2019-02-16T05:30:48.310Z,415
2019-02-16T05:31:55.511Z,414
2019-02-16T05:33:02.713Z,416
2019-02-16T05:34:09.634Z,416
2019-02-16T05:35:16.557Z,415
2019-02-16T05:36:23.746Z,416
2019-02-16T05:37:31.609Z,416
2019-02-16T05:38:38.826Z,415
2019-02-16T05:39:46.019Z,415
2019-02-16T05:40:53.213Z,415
2019-02-16T05:42:00.398Z,415
2019-02-16T05:43:07.310Z,414
2019-02-16T05:44:14.505Z,413
2019-02-16T05:45:21.707Z,413
2019-02-16T05:46:28.888Z,413
2019-02-16T05:47:36.083Z,412
2019-02-16T05:48:43.287Z,413
2019-02-16T05:49:50.222Z,412
2019-02-16T05:50:57.408Z,413
2019-02-16T05:52:04.600Z,413
2019-02-16T05:53:11.790Z,412
2019-02-16T05:54:18.983Z,412
2019-02-16T05:55:26.175Z,413
2019-02-16T05:56:33.092Z,413
2019-02-16T05:57:40.047Z,413
2019-02-16T05:58:46.964Z,414
2019-02-16T05:59:53.596Z,414
2019-02-16T06:01:00.513Z,414
2019-02-16T06:02:07.700Z,414
2019-02-16T06:03:14.619Z,415
2019-02-16T06:04:21.539Z,415
2019-02-16T06:05:28.726Z,414
2019-02-16T06:06:35.912Z,414
2019-02-16T06:07:42.838Z,413
2019-02-16T06:08:50.026Z,414
2019-02-16T06:09:57.214Z,414
2019-02-16T06:11:06.794Z,414
2019-02-16T06:12:14.007Z,413
2019-02-16T06:13:21.186Z,412
2019-02-16T06:14:28.107Z,413
2019-02-16T06:15:35.300Z,413
2019-02-16T06:16:42.492Z,413
2019-02-16T06:17:49.675Z,413
2019-02-16T06:18:56.867Z,412
2019-02-16T06:20:03.795Z,413
2019-02-16T06:21:10.978Z,412
2019-02-16T06:22:18.167Z,413
2019-02-16T06:23:25.360Z,412
2019-02-16T06:24:32.549Z,412
2019-02-16T06:25:39.746Z,412
2019-02-16T06:26:47.121Z,412
2019-02-16T06:27:54.352Z,411
2019-02-16T06:29:01.541Z,412
2019-02-16T06:30:08.452Z,413
2019-02-16T06:31:15.644Z,413
2019-02-16T06:32:23.038Z,412
2019-02-16T06:33:30.152Z,412
2019-02-16T06:34:37.072Z,412
2019-02-16T06:35:43.988Z,413
2019-02-16T06:36:51.178Z,412
2019-02-16T06:37:58.371Z,413
2019-02-16T06:39:05.285Z,412
2019-02-16T06:40:12.489Z,413
2019-02-16T06:41:19.409Z,413
2019-02-16T06:42:26.602Z,413
2019-02-16T06:43:33.787Z,412
2019-02-16T06:44:40.713Z,412
2019-02-16T06:45:47.898Z,412
2019-02-16T06:46:55.084Z,412
2019-02-16T06:48:02.276Z,411
2019-02-16T06:49:09.471Z,411
2019-02-16T06:50:16.661Z,411
2019-02-16T06:51:23.306Z,410
2019-02-16T06:52:30.498Z,410
2019-02-16T06:53:37.751Z,410
2019-02-16T06:54:44.976Z,409
2019-02-16T06:55:51.894Z,410
2019-02-16T06:56:59.089Z,410
2019-02-16T06:58:06.007Z,410
2019-02-16T06:59:13.199Z,411
2019-02-16T07:00:20.392Z,411
2019-02-16T07:01:27.586Z,411
2019-02-16T07:02:34.503Z,411
2019-02-16T07:03:41.702Z,412
2019-02-16T07:04:48.909Z,411
2019-02-16T07:05:55.832Z,411
2019-02-16T07:07:03.027Z,410
2019-02-16T07:08:10.216Z,410
2019-02-16T07:09:17.411Z,410
2019-02-16T07:10:24.630Z,410
2019-02-16T07:11:31.817Z,410
2019-02-16T07:12:39.019Z,409
2019-02-16T07:13:45.682Z,410
2019-02-16T07:14:52.932Z,409
2019-02-16T07:16:00.119Z,410
2019-02-16T07:17:07.041Z,408
2019-02-16T07:18:14.224Z,408
2019-02-16T07:19:21.172Z,409
2019-02-16T07:20:28.357Z,408
2019-02-16T07:21:35.548Z,407
2019-02-16T07:22:42.740Z,408
2019-02-16T07:23:49.937Z,406
2019-02-16T07:24:57.125Z,406
2019-02-16T07:26:05.907Z,406
2019-02-16T07:27:12.829Z,406
2019-02-16T07:28:20.024Z,406
2019-02-16T07:29:27.219Z,406
2019-02-16T07:30:34.141Z,405
2019-02-16T07:31:41.332Z,405
2019-02-16T07:32:48.264Z,405
2019-02-16T07:33:55.476Z,405
2019-02-16T07:35:02.665Z,405
2019-02-16T07:36:09.865Z,405
2019-02-16T07:37:17.124Z,405
2019-02-16T07:38:24.312Z,405
2019-02-16T07:39:31.511Z,405
2019-02-16T07:40:38.416Z,405
2019-02-16T07:41:45.621Z,404
2019-02-16T07:42:52.812Z,404
2019-02-16T07:44:00.016Z,405
2019-02-16T07:45:07.205Z,403
2019-02-16T07:46:14.395Z,404
2019-02-16T07:47:21.587Z,404
2019-02-16T07:48:28.782Z,404
2019-02-16T07:49:35.994Z,403
2019-02-16T07:50:42.918Z,403
2019-02-16T07:51:50.113Z,404
2019-02-16T07:52:57.308Z,403
2019-02-16T07:54:04.511Z,403
2019-02-16T07:55:11.703Z,402
2019-02-16T07:56:18.904Z,402
2019-02-16T07:57:26.091Z,402
2019-02-16T07:58:33.286Z,401
2019-02-16T07:59:40.479Z,401
2019-02-16T08:00:47.668Z,401
2019-02-16T08:01:56.695Z,402
2019-02-16T08:03:03.971Z,400
2019-02-16T08:04:11.168Z,400
2019-02-16T08:05:18.362Z,400
2019-02-16T08:06:25.555Z,400
2019-02-16T08:07:32.475Z,400
2019-02-16T08:08:39.668Z,401
2019-02-16T08:09:46.873Z,400
2019-02-16T08:10:54.070Z,399
2019-02-16T08:12:01.270Z,399
2019-02-16T08:13:08.197Z,399
2019-02-16T08:14:15.114Z,398
2019-02-16T08:15:22.333Z,397
2019-02-16T08:16:29.531Z,397
2019-02-16T08:17:36.741Z,394
2019-02-16T08:18:43.935Z,392
2019-02-16T08:19:51.131Z,386
2019-02-16T08:20:58.327Z,381
2019-02-16T08:22:05.529Z,377
2019-02-16T08:23:12.716Z,374
2019-02-16T08:24:19.635Z,372
2019-02-16T08:25:26.832Z,371
2019-02-16T08:26:34.029Z,371
2019-02-16T08:27:41.225Z,375
2019-02-16T08:28:48.416Z,380
2019-02-16T08:29:55.606Z,385
2019-02-16T08:31:02.810Z,388
2019-02-16T08:32:09.734Z,393
2019-02-16T08:33:16.961Z,397
2019-02-16T08:34:24.140Z,398
2019-02-16T08:35:31.337Z,399
2019-02-16T08:36:38.262Z,398
2019-02-16T08:37:45.454Z,397
2019-02-16T08:38:52.390Z,396
2019-02-16T08:39:59.579Z,396
2019-02-16T08:41:06.504Z,396
2019-02-16T08:42:13.699Z,396
2019-02-16T08:43:20.894Z,396
2019-02-16T08:44:28.096Z,396
2019-02-16T08:45:35.294Z,396
2019-02-16T08:46:42.489Z,394
2019-02-16T08:47:49.681Z,393
2019-02-16T08:48:56.878Z,393
2019-02-16T08:50:04.111Z,394
2019-02-16T08:51:11.303Z,393
2019-02-16T08:52:18.501Z,393
2019-02-16T08:53:25.698Z,393
2019-02-16T08:54:32.904Z,392
2019-02-16T08:55:40.101Z,392
2019-02-16T08:56:47.294Z,393
2019-02-16T08:57:54.486Z,394
2019-02-16T08:59:01.408Z,396
2019-02-16T09:00:07.791Z,394
2019-02-16T09:01:14.717Z,394
2019-02-16T09:02:21.634Z,394
2019-02-16T09:03:28.557Z,396
2019-02-16T09:04:35.760Z,395
2019-02-16T09:05:42.957Z,395
2019-02-16T09:06:49.881Z,395
2019-02-16T09:07:56.797Z,394
2019-02-16T09:09:03.726Z,395
2019-02-16T09:10:10.644Z,394
2019-02-16T09:11:17.846Z,391
2019-02-16T09:12:24.765Z,390
2019-02-16T09:13:31.691Z,389
2019-02-16T09:14:38.895Z,388
2019-02-16T09:15:46.138Z,384
2019-02-16T09:16:53.331Z,384
2019-02-16T09:17:59.995Z,381
2019-02-16T09:19:06.914Z,377
2019-02-16T09:20:13.836Z,372
2019-02-16T09:21:21.035Z,373
2019-02-16T09:22:27.952Z,374
2019-02-16T09:23:35.141Z,372
2019-02-16T09:24:42.341Z,372
2019-02-16T09:25:49.543Z,372
2019-02-16T09:26:56.465Z,372
2019-02-16T09:28:03.660Z,373
2019-02-16T09:29:10.855Z,373
2019-02-16T09:30:18.050Z,373
2019-02-16T09:31:25.268Z,375
2019-02-16T09:32:32.184Z,375
2019-02-16T09:33:39.104Z,376
2019-02-16T09:34:46.309Z,376
2019-02-16T09:35:53.508Z,376
2019-02-16T09:37:00.705Z,375
2019-02-16T09:38:07.904Z,376
2019-02-16T09:39:14.830Z,375
2019-02-16T09:40:22.027Z,376
2019-02-16T09:41:29.254Z,374
2019-02-16T09:42:36.458Z,374
2019-02-16T09:43:43.665Z,376
2019-02-16T09:44:50.861Z,376
2019-02-16T09:45:57.783Z,376
2019-02-16T09:47:04.978Z,376
2019-02-16T09:48:11.913Z,375
2019-02-16T09:49:19.108Z,375
2019-02-16T09:50:28.053Z,375
2019-02-16T09:51:35.395Z,374
2019-02-16T09:52:42.591Z,375
2019-02-16T09:53:49.785Z,375
2019-02-16T09:54:56.731Z,375
2019-02-16T09:56:03.924Z,374
2019-02-16T09:57:11.119Z,375
2019-02-16T09:58:18.310Z,374
2019-02-16T09:59:25.240Z,374
2019-02-16T10:00:32.444Z,374
2019-02-16T10:01:39.390Z,374
2019-02-16T10:02:46.317Z,373
2019-02-16T10:03:53.537Z,373
2019-02-16T10:05:00.734Z,373
2019-02-16T10:06:07.657Z,374
2019-02-16T10:07:14.858Z,374
2019-02-16T10:08:22.057Z,373
2019-02-16T10:09:29.250Z,373
2019-02-16T10:10:36.178Z,373
2019-02-16T10:11:43.106Z,372
2019-02-16T10:12:49.754Z,372
2019-02-16T10:13:56.955Z,372
2019-02-16T10:15:03.612Z,372
2019-02-16T10:16:10.534Z,371
2019-02-16T10:17:17.459Z,371
2019-02-16T10:18:24.390Z,370
2019-02-16T10:19:31.596Z,369
2019-02-16T10:20:40.967Z,369
2019-02-16T10:21:48.166Z,368
2019-02-16T10:22:55.363Z,367
2019-02-16T10:24:02.562Z,367
2019-02-16T10:25:09.762Z,367
2019-02-16T10:26:16.967Z,367
2019-02-16T10:27:24.165Z,366
2019-02-16T10:28:31.092Z,366
2019-02-16T10:29:38.296Z,364
2019-02-16T10:30:45.497Z,364
2019-02-16T10:31:52.695Z,366
2019-02-16T10:32:59.640Z,366
2019-02-16T10:34:06.853Z,365
2019-02-16T10:35:14.040Z,365
2019-02-16T10:36:21.239Z,363
2019-02-16T10:37:28.439Z,361
2019-02-16T10:38:35.669Z,357
2019-02-16T10:39:42.871Z,356
2019-02-16T10:40:50.076Z,357
2019-02-16T10:41:57.001Z,358
2019-02-16T10:43:04.199Z,358
2019-02-16T10:44:11.130Z,355
2019-02-16T10:45:18.331Z,352
2019-02-16T10:46:25.257Z,352
2019-02-16T10:47:32.172Z,353
2019-02-16T10:48:39.371Z,354
2019-02-16T10:49:46.571Z,353
2019-02-16T10:50:53.781Z,351
2019-02-16T10:52:00.983Z,350
2019-02-16T10:53:07.922Z,349
2019-02-16T10:54:15.127Z,348
2019-02-16T10:55:22.323Z,347
2019-02-16T10:56:29.522Z,344
2019-02-16T10:57:36.452Z,344
2019-02-16T10:58:43.648Z,347
2019-02-16T10:59:50.845Z,346
2019-02-16T11:00:57.820Z,344
2019-02-16T11:02:05.021Z,342
2019-02-16T11:03:12.231Z,346
2019-02-16T11:04:19.436Z,343
2019-02-16T11:05:26.361Z,341
2019-02-16T11:06:33.567Z,340
2019-02-16T11:07:40.773Z,342
2019-02-16T11:08:47.793Z,344
2019-02-16T11:09:54.996Z,344
2019-02-16T11:11:02.205Z,344
2019-02-16T11:12:23.829Z,346
2019-02-16T11:13:31.027Z,343
2019-02-16T11:14:38.227Z,344
2019-02-16T11:15:45.450Z,345
2019-02-16T11:16:54.619Z,346
2019-02-16T11:18:01.819Z,345
2019-02-16T11:19:09.026Z,345
2019-02-16T11:20:15.951Z,346
2019-02-16T11:21:22.880Z,346
2019-02-16T11:22:30.085Z,347
2019-02-16T11:23:37.285Z,347
2019-02-16T11:24:44.490Z,344
2019-02-16T11:25:51.422Z,343
2019-02-16T11:26:58.627Z,345
2019-02-16T11:28:05.564Z,347
2019-02-16T11:29:12.764Z,347
2019-02-16T11:30:19.965Z,346
2019-02-16T11:31:27.174Z,345
2019-02-16T11:32:34.376Z,341
2019-02-16T11:33:41.587Z,337
2019-02-16T11:34:48.792Z,339
2019-02-16T11:35:55.998Z,340
2019-02-16T11:37:03.203Z,335
2019-02-16T11:38:10.409Z,333
2019-02-16T11:39:17.610Z,332
2019-02-16T11:40:24.537Z,329
2019-02-16T11:41:31.747Z,328
2019-02-16T11:42:38.943Z,328
2019-02-16T11:43:46.151Z,327
2019-02-16T11:44:53.356Z,327
2019-02-16T11:46:00.288Z,329
2019-02-16T11:47:07.505Z,331
2019-02-16T11:48:14.709Z,334
2019-02-16T11:49:21.920Z,332
2019-02-16T11:50:29.127Z,333
2019-02-16T11:51:36.338Z,331
2019-02-16T11:52:43.275Z,335
2019-02-16T11:53:52.179Z,339
2019-02-16T11:54:59.113Z,339
2019-02-16T11:56:06.328Z,337
2019-02-16T11:57:13.265Z,336
2019-02-16T11:58:20.473Z,335
2019-02-16T11:59:27.681Z,329
2019-02-16T12:00:34.889Z,329
2019-02-16T12:01:41.822Z,328
2019-02-16T12:02:48.760Z,330
2019-02-16T12:03:55.966Z,327
2019-02-16T12:05:02.899Z,326
2019-02-16T12:06:10.110Z,323
2019-02-16T12:07:17.318Z,328
2019-02-16T12:08:24.528Z,330
2019-02-16T12:09:31.736Z,333
2019-02-16T12:10:38.664Z,333
2019-02-16T12:11:45.879Z,332
2019-02-16T12:12:53.079Z,331
2019-02-16T12:14:00.282Z,326
2019-02-16T12:15:07.207Z,322
2019-02-16T12:16:14.422Z,321
2019-02-16T12:17:21.618Z,327
2019-02-16T12:18:28.823Z,333
2019-02-16T12:19:36.020Z,334
2019-02-16T12:20:43.228Z,331
2019-02-16T12:21:49.884Z,333
2019-02-16T12:22:57.087Z,330
2019-02-16T12:24:04.031Z,329
2019-02-16T12:25:11.237Z,325
2019-02-16T12:26:18.445Z,323
2019-02-16T12:27:25.653Z,320
2019-02-16T12:28:32.857Z,319
2019-02-16T12:29:40.065Z,317
2019-02-16T12:30:47.267Z,315
2019-02-16T12:31:54.470Z,318
2019-02-16T12:33:01.682Z,319
2019-02-16T12:34:08.893Z,318
2019-02-16T12:35:16.103Z,320
2019-02-16T12:36:23.107Z,322
2019-02-16T12:37:30.318Z,323
2019-02-16T12:38:37.520Z,322
2019-02-16T12:39:44.723Z,324
2019-02-16T12:40:51.930Z,320
2019-02-16T12:41:59.145Z,317
2019-02-16T12:43:06.353Z,323
2019-02-16T12:44:13.286Z,327
2019-02-16T12:45:22.462Z,332
2019-02-16T12:46:29.410Z,334
2019-02-16T12:47:36.333Z,331
2019-02-16T12:48:43.544Z,329
2019-02-16T12:49:50.963Z,326
2019-02-16T12:51:00.409Z,322
2019-02-16T12:52:07.065Z,322
2019-02-16T12:53:14.267Z,325
2019-02-16T12:54:21.478Z,324
2019-02-16T12:55:28.686Z,320
2019-02-16T12:56:35.912Z,316
2019-02-16T12:57:43.104Z,315
2019-02-16T12:58:50.039Z,319
2019-02-16T12:59:56.433Z,321
2019-02-16T13:01:03.642Z,320
2019-02-16T13:02:10.590Z,318
2019-02-16T13:03:17.806Z,324
2019-02-16T13:04:25.021Z,323
2019-02-16T13:05:46.618Z,316
2019-02-16T13:06:53.830Z,320
2019-02-16T13:08:01.031Z,326
2019-02-16T13:09:08.236Z,328
2019-02-16T13:10:15.183Z,332
2019-02-16T13:11:22.380Z,333
2019-02-16T13:12:29.602Z,327
2019-02-16T13:13:36.820Z,324
2019-02-16T13:14:44.022Z,324
2019-02-16T13:15:51.227Z,329
2019-02-16T13:16:58.435Z,328
2019-02-16T13:18:05.638Z,328
2019-02-16T13:19:12.843Z,328
2019-02-16T13:20:20.054Z,325
2019-02-16T13:21:26.984Z,321
2019-02-16T13:22:33.918Z,320
2019-02-16T13:23:41.126Z,320
2019-02-16T13:24:48.329Z,324
2019-02-16T13:25:55.536Z,326
2019-02-16T13:27:02.464Z,324
2019-02-16T13:28:09.670Z,324
2019-02-16T13:29:16.872Z,326
2019-02-16T13:30:24.074Z,325
2019-02-16T13:31:31.283Z,326
2019-02-16T13:32:38.484Z,326
2019-02-16T13:33:45.422Z,321
2019-02-16T13:34:52.356Z,318
2019-02-16T13:35:59.561Z,322
2019-02-16T13:37:06.767Z,321
2019-02-16T13:38:13.984Z,321
2019-02-16T13:39:21.193Z,324
2019-02-16T13:40:28.398Z,321
2019-02-16T13:41:35.610Z,322
2019-02-16T13:42:42.826Z,322
2019-02-16T13:43:50.039Z,326
2019-02-16T13:44:57.243Z,325
2019-02-16T13:46:04.175Z,323
2019-02-16T13:47:11.111Z,325
2019-02-16T13:48:18.358Z,329
2019-02-16T13:49:25.565Z,329
2019-02-16T13:50:32.496Z,325
2019-02-16T13:51:39.719Z,324
2019-02-16T13:52:46.652Z,325
2019-02-16T13:53:53.326Z,324
2019-02-16T13:55:00.557Z,321
2019-02-16T13:56:07.770Z,321
2019-02-16T13:57:14.978Z,320
2019-02-16T13:58:22.181Z,321
2019-02-16T13:59:29.125Z,323
2019-02-16T14:00:36.060Z,323
2019-02-16T14:01:43.004Z,321
2019-02-16T14:02:50.219Z,321
2019-02-16T14:03:57.423Z,322
2019-02-16T14:05:04.364Z,323
2019-02-16T14:06:11.573Z,320
2019-02-16T14:07:18.510Z,324
2019-02-16T14:08:25.442Z,328
2019-02-16T14:09:32.102Z,325
2019-02-16T14:10:39.309Z,322
2019-02-16T14:11:46.512Z,317
2019-02-16T14:12:53.449Z,313
2019-02-16T14:14:00.653Z,314
2019-02-16T14:15:07.868Z,311
2019-02-16T14:16:14.801Z,310
2019-02-16T14:17:22.021Z,312
2019-02-16T14:18:28.891Z,316
2019-02-16T14:19:36.108Z,313
2019-02-16T14:20:43.335Z,311
2019-02-16T14:21:50.576Z,311
2019-02-16T14:22:57.786Z,318
2019-02-16T14:24:04.984Z,319
2019-02-16T14:25:12.194Z,314
2019-02-16T14:26:19.412Z,313
2019-02-16T14:27:26.631Z,317
2019-02-16T14:28:33.842Z,316
2019-02-16T14:29:41.056Z,315
2019-02-16T14:30:48.271Z,314
2019-02-16T14:31:55.210Z,312
2019-02-16T14:33:02.420Z,309
2019-02-16T14:34:09.630Z,307
2019-02-16T14:35:16.846Z,308
2019-02-16T14:36:24.042Z,310
2019-02-16T14:37:30.978Z,310
2019-02-16T14:38:37.910Z,309
2019-02-16T14:39:44.846Z,310
2019-02-16T14:40:52.050Z,312
2019-02-16T14:41:59.260Z,314
2019-02-16T14:43:06.465Z,317
2019-02-16T14:44:13.671Z,321
2019-02-16T14:45:20.598Z,319
2019-02-16T14:46:27.814Z,316
2019-02-16T14:47:35.020Z,314
2019-02-16T14:48:42.227Z,316
2019-02-16T14:49:49.439Z,319
2019-02-16T14:50:56.385Z,323
2019-02-16T14:52:03.320Z,324
2019-02-16T14:53:10.251Z,325
2019-02-16T14:54:17.454Z,325
2019-02-16T14:55:24.658Z,325
2019-02-16T14:56:31.596Z,326
2019-02-16T14:57:38.811Z,325
2019-02-16T14:58:46.019Z,323
2019-02-16T14:59:53.224Z,322
2019-02-16T15:01:00.432Z,320
2019-02-16T15:02:07.648Z,320
2019-02-16T15:03:14.857Z,318
2019-02-16T15:04:22.066Z,320
2019-02-16T15:05:29.269Z,324
2019-02-16T15:06:37.594Z,327
2019-02-16T15:07:44.806Z,329
2019-02-16T15:08:52.032Z,331
2019-02-16T15:09:58.956Z,329
2019-02-16T15:11:06.166Z,328
2019-02-16T15:12:13.384Z,330
2019-02-16T15:13:20.590Z,330
2019-02-16T15:14:27.527Z,329
2019-02-16T15:15:34.735Z,331
2019-02-16T15:16:41.942Z,334
2019-02-16T15:17:49.147Z,338
2019-02-16T15:18:56.125Z,336
2019-02-16T15:20:03.333Z,335
2019-02-16T15:21:10.589Z,332
2019-02-16T15:22:17.781Z,332
2019-02-16T15:23:25.038Z,334
2019-02-16T15:24:32.245Z,335
2019-02-16T15:25:39.448Z,333